Main page
METAR-TAF:

METAR-TAF

Airports :

Kushok Bakula Rimpochee Airport

Leh, India

latitude: 34-08-09N, longitude: 077-32-47E, elevation: 3256 m

Current weather observation

The report was made 53 minutes ago, at 00:30 UTC
Wind 2 kt from variable directions
Temperature
Pressure 1028 hPa
Visibility: 6000 m
Scattered clouds at a height of 7000 ft
Scattered clouds at a height of 15000 ft

METAR: VILH 240030Z VRB02KT 6000 SCT070 SCT150 07/-1 Q1028 NOSIG

Time: 06:53 (01:23 UTC)

Forecast

The report was made 15 hours and 53 minutes ago, at 09:30 UTC
Forecast valid from 23 at 18 UTC to 24 at 12 UTC
Wind 10 kt from the West/Northwest
Visibility: 6000 m
Few clouds at a height of 7000 ft
Scattered clouds at a height of 15000 ft
Temporary
from 24 at 08 UTC to 24 at 12 UTC
Wind 15 kt from the West/Northwest with gusts up to 25 kt

TAF: VILH 230930Z 2318/2412 29010KT 6000 FEW070 SCT150 TEMPO 2408/2412 29015G25KT

Weather observations and forecasts of more than 4000 airports (METAR and TAF reports).

The available stations are represented by yellow and red dots on the map.

Hover mouse over dot to see the name of the station.

Then click to see weather observations and forecasts.

To change the map : click on the green buttons with a black cross to zoom in, on the green button with a dash to zoom out, or on the green arrows for adjacent maps.


METAR-TAF: